Eindhoven, Netherlands
Current Conditions -  °F | °C
As of 5:29 AM on Friday 19 Dec 2014 (Local Time) from EHEH Reporting Station
Drizzle Drizzle  
Wind Chill: 54°   Ceiling: 900
Heat Index: 54°   Visibility: 3mi
Dew Point: 52°   Wind: 24mph
Humidity: 94%   Direction: 230°SW
Pressure: 29.83"   Gusts: 40mph
Location:  51.45°N, 5.45°E
Report Text: EHEH 190429Z AUTO 23021G35KT 4800 DZ FEW006 SCT007 BKN009 12/11 Q1010 GRN
Loading
Personal Weather Stations






























Interactive Weather Map New forecast layout! Learn more

10-Day Weather Forecast

Advertisements
Track Severe Weather on mobile